Time;durP1;ratioP1;P1;durP2;ratioP2;P2;SDS_P1;SDS_P2;PMS_P1;PMS_P2;Temp;Humidity;BMP_temperature;BMP_pressure;BME280_temperature;BME280_humidity;BME280_pressure;Samples;Min_cycle;Max_cycle;Signal;HPM_P1;HPM_P2
2022/09/19 00:02:26;;;;;;;17.00;2.67;;;;;;;;;;6245780;22;20034;-89
2022/09/19 00:04:55;;;;;;;19.13;2.20;;;;;;;;;;6222162;22;20027;-86
2022/09/19 00:07:27;;;;;;;11.60;2.30;;;;;;;;;;6219698;22;20387;-85
2022/09/19 00:09:53;;;;;;;16.90;2.03;;;;;;;;;;6221847;22;20095;-87
2022/09/19 00:15:07;;;;;;;19.02;2.40;;;;;;;;;;6334172;22;20023;-83
2022/09/19 00:17:33;;;;;;;17.33;2.42;;;;;;;;;;6334403;22;20052;-86
2022/09/19 00:19:59;;;;;;;26.25;2.63;;;;;;;;;;6305720;22;20018;-85
2022/09/19 00:22:25;;;;;;;14.40;2.72;;;;;;;;;;6333108;22;20105;-88
2022/09/19 00:24:56;;;;;;;16.45;2.13;;;;;;;;;;6277426;22;20607;-87
2022/09/19 00:27:23;;;;;;;19.85;3.20;;;;;;;;;;6306993;22;20443;-85
2022/09/19 00:30:07;;;;;;;16.75;2.92;;;;;;;;;;6301572;22;20026;-85
2022/09/19 00:35:19;;;;;;;24.50;2.42;;;;;;;;;;6327702;22;19933;-84
2022/09/19 00:37:55;;;;;;;21.98;3.08;;;;;;;;;;6303323;22;20019;-85
2022/09/19 00:40:21;;;;;;;27.23;3.10;;;;;;;;;;6298221;22;20022;-87
2022/09/19 00:42:47;;;;;;;21.60;3.13;;;;;;;;;;6330198;22;20022;-84
2022/09/19 00:45:15;;;;;;;32.15;4.28;;;;;;;;;;6329744;22;20057;-87
2022/09/19 00:47:49;;;;;;;21.15;2.60;;;;;;;;;;6278541;22;20019;-88
2022/09/19 00:50:27;;;;;;;33.55;3.40;;;;;;;;;;6301005;22;20023;-84
2022/09/19 00:52:59;;;;;;;21.27;2.97;;;;;;;;;;6331909;22;20560;-88
2022/09/19 00:55:36;;;;;;;18.05;3.00;;;;;;;;;;6300674;22;20378;-82
2022/09/19 00:58:22;;;;;;;37.72;4.32;;;;;;;;;;6277387;22;20025;-87
2022/09/19 01:00:48;;;;;;;27.30;4.25;;;;;;;;;;6333490;22;20071;-87
2022/09/19 01:03:27;;;;;;;31.38;4.00;;;;;;;;;;6305078;22;20019;-86
2022/09/19 01:05:59;;;;;;;20.95;3.50;;;;;;;;;;6299439;22;20068;-87
2022/09/19 01:08:45;;;;;;;28.95;4.13;;;;;;;;;;6301241;22;20439;-87
2022/09/19 01:11:57;;;;;;;23.58;3.83;;;;;;;;;;6238526;22;20120;-88
2022/09/19 01:15:00;;;;;;;28.67;4.40;;;;;;;;;;6231893;22;20054;-85
2022/09/19 01:18:02;;;;;;;30.70;3.65;;;;;;;;;;6238554;22;20400;-86
2022/09/19 01:21:37;;;;;;;29.13;4.38;;;;;;;;;;6198375;22;20452;-86
2022/09/19 01:24:20;;;;;;;31.67;4.40;;;;;;;;;;6232513;22;20094;-87
2022/09/19 01:26:46;;;;;;;27.50;3.60;;;;;;;;;;6237375;22;20027;-88
2022/09/19 01:29:28;;;;;;;23.05;4.32;;;;;;;;;;6263049;22;20051;-89
2022/09/19 01:32:09;;;;;;;22.33;3.95;;;;;;;;;;6238568;22;20035;-86
2022/09/19 01:34:52;;;;;;;35.67;4.07;;;;;;;;;;6261539;22;20019;-85
2022/09/19 01:37:41;;;;;;;33.17;4.55;;;;;;;;;;6263019;22;20015;-86
2022/09/19 01:42:58;;;;;;;24.10;4.13;;;;;;;;;;6261349;22;20470;-87
2022/09/19 01:45:27;;;;;;;32.78;4.25;;;;;;;;;;6237909;22;20081;-87
2022/09/19 01:48:00;;;;;;;28.38;4.03;;;;;;;;;;6236394;22;20095;-86
2022/09/19 01:50:36;;;;;;;27.70;4.18;;;;;;;;;;6240810;22;20019;-87
2022/09/19 01:53:27;;;;;;;29.83;3.97;;;;;;;;;;6267035;22;20031;-88
2022/09/19 01:56:19;;;;;;;22.65;3.45;;;;;;;;;;6323575;22;20489;-89
2022/09/19 01:58:51;;;;;;;25.85;3.92;;;;;;;;;;6280729;22;20018;-87
2022/09/19 02:01:52;;;;;;;22.88;3.65;;;;;;;;;;6314081;22;20023;-86
2022/09/19 02:04:22;;;;;;;27.38;3.88;;;;;;;;;;6307272;22;20337;-87
2022/09/19 02:06:54;;;;;;;24.80;4.03;;;;;;;;;;6280743;22;20019;-86
2022/09/19 02:09:28;;;;;;;27.25;3.50;;;;;;;;;;6304786;22;20029;-85
2022/09/19 02:11:58;;;;;;;26.83;3.30;;;;;;;;;;6333053;22;20040;-88
2022/09/19 02:14:54;;;;;;;27.45;4.32;;;12.30;99.90;;;;;;6299448;22;20461;-85
2022/09/19 02:21:58;;;;;;;41.17;4.88;;;;;;;;;;6304279;22;20095;-89
2022/09/19 02:24:27;;;;;;;26.10;3.50;;;;;;;;;;6273738;22;20019;-88
2022/09/19 02:27:08;;;;;;;22.02;3.78;;;;;;;;;;6290084;22;20019;-84
2022/09/19 02:29:45;;;;;;;25.27;3.90;;;;;;;;;;6272616;22;20022;-84
2022/09/19 02:32:24;;;;;;;30.45;3.95;;;;;;;;;;6304267;22;20022;-85
2022/09/19 02:34:53;;;;;;;25.35;3.58;;;;;;;;;;6299416;22;20027;-85
2022/09/19 02:37:57;;;;;;;20.67;3.00;;;;;;;;;;6183354;23;20103;-88
2022/09/19 02:40:32;;;;;;;31.17;3.85;;;;;;;;;;6278878;22;20105;-85
2022/09/19 02:43:17;;;;;;;38.85;4.50;;;;;;;;;;6275223;22;20027;-86
2022/09/19 02:48:46;;;;;;;29.48;3.47;;;;;;;;;;6319377;22;20042;-85
2022/09/19 02:51:40;;;;;;;20.95;3.33;;;;;;;;;;6273058;22;20029;-86
2022/09/19 02:54:32;;;;;;;25.05;3.28;;;;;;;;;;6300387;22;20077;-85
2022/09/19 02:57:16;;;;;;;21.25;3.47;;;;;;;;;;6293172;22;20021;-86
2022/09/19 02:59:49;;;;;;;33.88;4.50;;;;;;;;;;6326731;22;20333;-88
2022/09/19 03:02:23;;;;;;;21.83;3.13;;;;;;;;;;6328240;22;20049;-85
2022/09/19 03:04:49;;;;;;;;;;;;;;;;;;6326532;22;20749;-87
2022/09/19 03:07:33;;;;;;;29.50;4.20;;;;;;;;;;6328601;22;19914;-87
2022/09/19 03:13:22;;;;;;;25.98;3.78;;;;;;;;;;6328517;22;20041;-85
2022/09/19 03:16:08;;;;;;;16.90;3.00;;;;;;;;;;6304529;22;20027;-87
2022/09/19 03:18:56;;;;;;;19.77;2.97;;;;;;;;;;6300912;22;20019;-85
2022/09/19 03:21:26;;;;;;;21.33;3.13;;;;;;;;;;6327676;22;20333;-86
2022/09/19 03:24:16;;;;;;;22.90;3.50;;;;;;;;;;6299036;22;20019;-85
2022/09/19 03:26:50;;;;;;;35.85;3.35;;;;;;;;;;6300313;22;20076;-85
2022/09/19 03:29:16;;;;;;;21.38;2.53;;;;;;;;;;6327455;22;20061;-85
2022/09/19 03:31:50;;;;;;;18.65;2.45;;;;;;;;;;6303105;22;20033;-84
2022/09/19 03:34:17;;;;;;;16.05;2.10;;;;;;;;;;6280534;22;20025;-89
2022/09/19 03:36:43;;;;;;;20.27;2.75;;;;;;;;;;6305356;22;20157;-85
2022/09/19 03:39:10;;;;;;;12.80;2.03;;;;;;;;;;6279800;22;20090;-89
2022/09/19 03:42:01;;;;;;;11.50;2.00;;;;;;;;;;6307736;22;20118;-88
2022/09/19 03:44:32;;;;;;;14.25;2.25;;;;;;;;;;6308762;22;20054;-88
2022/09/19 03:47:08;;;;;;;13.25;1.70;;;;;;;;;;6335407;22;20030;-88
2022/09/19 03:49:34;;;;;;;16.08;2.80;;;;;;;;;;6333345;22;20023;-86
2022/09/19 03:52:12;;;;;;;13.77;2.63;;;;;;;;;;6308489;22;20071;-88
2022/09/19 03:55:07;;;;;;;23.40;3.50;;;;;;;;;;6308292;22;20050;-85
2022/09/19 03:57:42;;;;;;;;;;;;;;;;;;6331250;22;20067;-86
2022/09/19 04:00:09;;;;;;;23.48;3.10;;;;;;;;;;6333364;22;19926;-85
2022/09/19 04:05:19;;;;;;;22.65;2.35;;;;;;;;;;6332406;22;20054;-84
2022/09/19 04:07:51;;;;;;;33.33;3.40;;;;;;;;;;6308013;22;20061;-86
2022/09/19 04:10:46;;;;;;;30.60;3.17;;;;;;;;;;6306909;22;20047;-85
2022/09/19 04:13:39;;;;;;;30.63;3.00;;;;;;;;;;6152508;23;20017;-85
2022/09/19 04:16:06;;;;;;;24.80;3.22;;;;;;;;;;6157429;23;20041;-85
2022/09/19 04:18:46;;;;;;;23.35;3.53;;;;;;;;;;6273710;22;20268;-86
2022/09/19 04:21:34;;;;;;;20.08;2.95;;;;;;;;;;6305007;22;20354;-86
2022/09/19 04:24:26;;;;;;;23.08;3.33;;;;;;;;;;6314255;22;20084;-85
2022/09/19 04:26:53;;;;;;;30.33;2.83;;;;;;;;;;6338901;22;20120;-84
2022/09/19 04:29:28;;;;;;;26.65;3.05;;;;;;;;;;6304510;22;20015;-84
2022/09/19 04:31:54;;;;;;;25.15;3.95;;;;;;;;;;6301219;22;20023;-85
2022/09/19 04:34:49;;;;;;;26.35;3.83;;;;;;;;;;6301927;22;20022;-84
2022/09/19 04:37:33;;;;;;;;;;;;;;;;;;6332960;22;20022;-83
2022/09/19 04:40:02;;;;;;;21.38;3.03;;;;;;;;;;6329398;22;19918;-84
2022/09/19 04:42:32;;;;;;;34.40;3.78;;;;;;;;;;6278864;22;20057;-84
2022/09/19 04:44:58;;;;;;;26.30;2.92;;;;;;;;;;6326469;22;20026;-85
2022/09/19 04:47:24;;;;;;;23.83;3.65;;;;;;;;;;6301961;22;20371;-84
2022/09/19 04:49:56;;;;;;;23.85;3.15;;;;;;;;;;6301278;22;20026;-86
2022/09/19 04:52:25;;;;;;;25.48;3.42;;;;;;;;;;6300823;22;20021;-86
2022/09/19 04:55:06;;;;;;;20.77;3.15;;;;;;;;;;6298631;22;20427;-86
2022/09/19 04:57:33;;;;;;;24.67;3.97;;;;;;;;;;6275414;22;20411;-86
2022/09/19 04:59:59;;;;;;;25.02;3.30;;;;;;;;;;6320145;22;20816;-88
2022/09/19 05:02:30;;;;;;;29.65;4.07;;;;;;;;;;6282988;22;20026;-86
2022/09/19 05:05:08;;;;;;;30.88;3.83;;;;;;;;;;6308161;22;20089;-86
2022/09/19 05:07:37;;;;;;;29.55;3.92;;;;;;;;;;6279796;22;20022;-86
2022/09/19 05:10:04;;;;;;;26.13;3.97;;;;;;;;;;6304940;22;20064;-90
2022/09/19 05:12:30;;;;;;;30.60;4.15;;;;;;;;;;6332335;22;20489;-87
2022/09/19 05:14:56;;;;;;;30.13;4.28;;;;;;;;;;6275650;22;20019;-86
2022/09/19 05:17:44;;;;;;;32.10;3.40;;;;;;;;;;6277375;22;20070;-87
2022/09/19 05:20:11;;;;;;;24.38;3.72;;;;;;;;;;6303125;22;20023;-87
2022/09/19 05:22:37;;;;;;;20.17;3.10;;;;;;;;;;6278564;22;20015;-86
2022/09/19 05:25:27;;;;;;;24.83;2.97;;;;;;;;;;6301851;22;20015;-87
2022/09/19 05:28:06;;;;;;;23.85;3.92;;;;;;;;;;6278005;22;20468;-87
2022/09/19 05:31:12;;;;;;;19.15;2.63;;;;;;;;;;6278934;22;20144;-87
2022/09/19 05:33:48;;;;;;;18.40;3.08;;;;;;;;;;6334325;22;20015;-87
2022/09/19 05:39:08;;;;;;;23.13;3.33;;;;;;;;;;6337383;22;20168;-87
2022/09/19 05:42:00;;;;;;;22.88;3.15;;;;;;;;;;6246747;22;20023;-86
2022/09/19 05:45:10;;;;;;;23.40;2.85;;;;;;;;;;6241216;22;20078;-85
2022/09/19 06:00:02;;;;;;;26.48;3.50;;;;;;;;;;6322943;22;20031;-85
2022/09/19 06:02:53;;;;;;;20.25;3.05;;;;;;;;;;6326474;22;20026;-85
2022/09/19 06:05:48;;;;;;;22.10;3.50;;;;;;;;;;6276132;22;20109;-85
2022/09/19 06:08:15;;;;;;;27.25;3.30;;;;;;;;;;6268382;22;20440;-87
2022/09/19 06:11:18;;;;;;;34.63;4.60;;;;;;;;;;6295196;22;20023;-86
2022/09/19 06:16:57;;;;;;;25.98;4.03;;;;;;;;;;6295424;22;20013;-85
2022/09/19 06:19:25;;;;;;;40.05;3.65;;;;;;;;;;6294888;22;20023;-86
2022/09/19 06:31:22;;;;;;;24.23;3.17;;;;;;;;;;6307169;22;20025;-85
2022/09/19 06:37:03;;;;;;;26.60;3.55;;;12.80;99.90;;;;;;6305662;22;20019;-85
2022/09/19 06:43:03;;;;;;;23.25;3.25;;;;;;;;;;6275984;22;20031;-87
2022/09/19 06:45:30;;;;;;;29.77;3.33;;;;;;;;;;6278913;22;20038;-89
2022/09/19 06:47:59;;;;;;;16.73;3.10;;;;;;;;;;6308190;22;20023;-88
2022/09/19 06:50:27;;;;;;;22.38;3.30;;;;;;;;;;6286033;22;20026;-88
2022/09/19 06:52:59;;;;;;;19.55;3.00;;;;;;;;;;6282312;22;20023;-85
2022/09/19 06:58:46;;;;;;;26.60;3.20;;;;;;;;;;6334480;22;20082;-86
2022/09/19 07:01:13;;;;;;;24.00;3.75;;;;;;;;;;6306532;22;20015;-86
2022/09/19 07:13:44;;;;;;;25.23;3.42;;;;;;;;;;6175218;23;20017;-85
2022/09/19 07:33:38;;;;;;;17.95;2.78;;;;;;;;;;6295487;22;20484;-87
2022/09/19 07:36:07;;;;;;;21.75;3.20;;;;;;;;;;6248738;22;20023;-85
2022/09/19 07:41:53;;;;;;;20.55;2.83;;;;;;;;;;6312387;22;20020;-88
2022/09/19 07:50:24;;;;;;;23.73;3.55;;;;;;;;;;6305278;22;20049;-86
2022/09/19 07:53:07;;;;;;;21.58;3.60;;;;;;;;;;6299739;22;20148;-86
2022/09/19 08:03:15;;;;;;;30.60;3.05;;;;;;;;;;6330487;22;20466;-87
2022/09/19 08:12:38;;;;;;;;;;;15.20;99.90;;;;;;6277026;22;20019;-85
2022/09/19 08:15:04;;;;;;;25.05;3.38;;;;;;;;;;6249488;22;19915;-87
2022/09/19 08:17:36;;;;;;;17.58;2.92;;;;;;;;;;6275396;22;20023;-88
2022/09/19 08:24:29;;;;;;;17.75;2.88;;;15.20;99.90;;;;;;6207459;23;20136;-85
2022/09/19 08:46:53;;;;;;;16.73;2.30;;;;;;;;;;6303423;22;20026;-84
2022/09/19 09:13:58;;;;;;;16.88;2.92;;;;;;;;;;6307778;22;20026;-87
2022/09/19 09:16:31;;;;;;;15.75;3.30;;;;;;;;;;6307333;22;20023;-87
2022/09/19 09:19:17;;;;;;;16.75;3.15;;;;;;;;;;6285473;22;20095;-89
2022/09/19 09:22:01;;;;;;;15.95;2.92;;;;;;;;;;6278908;22;20019;-84
2022/09/19 10:06:11;;;;;;;18.77;3.10;;;;;;;;;;6242184;22;20437;-85
2022/09/19 10:16:02;;;;;;;15.18;2.50;;;;;;;;;;6363897;22;20454;-83
2022/09/19 10:18:42;;;;;;;20.38;3.20;;;;;;;;;;6309580;22;20026;-85
2022/09/19 10:21:08;;;;;;;25.48;3.75;;;;;;;;;;6364884;22;20106;-86
2022/09/19 10:23:34;;;;;;;18.65;3.63;;;;;;;;;;6339074;22;20082;-84
2022/09/19 10:26:15;;;;;;;27.88;4.68;;;;;;;;;;6368240;22;20421;-84
2022/09/19 10:29:25;;;;;;;16.08;3.30;;;;;;;;;;6341625;22;20488;-84
2022/09/19 10:32:09;;;;;;;16.98;3.40;;;;;;;;;;6309076;22;20026;-86
2022/09/19 10:34:36;;;;;;;16.48;3.15;;;;;;;;;;6335946;22;20071;-85
2022/09/19 10:37:02;;;;;;;16.45;2.13;;;;;;;;;;6361674;22;20055;-84
2022/09/19 10:39:29;;;;;;;25.40;3.88;;;;;;;;;;6308685;22;20014;-85
2022/09/19 10:42:34;;;;;;;15.73;2.53;;;;;;;;;;6333888;22;20474;-86
2022/09/19 10:45:02;;;;;;;16.63;3.30;;;;;;;;;;6364617;22;20014;-85
2022/09/19 10:50:50;;;;;;;;;;;;;;;;;;6336582;22;20022;-85
2022/09/19 10:53:59;;;;;;;14.55;2.88;;;;;;;;;;6333534;22;19921;-86
2022/09/19 10:57:05;;;;;;;22.95;3.28;;;;;;;;;;6157288;23;20027;-86
2022/09/19 10:59:53;;;;;;;14.50;2.40;;;;;;;;;;6181168;23;20071;-84
2022/09/19 11:02:56;;;;;;;9.75;2.70;;;;;;;;;;6177467;23;20029;-86
2022/09/19 11:05:56;;;;;;;13.93;2.25;;;;;;;;;;6174539;23;20073;-84
2022/09/19 11:08:44;;;;;;;13.77;2.50;;;;;;;;;;6180669;23;20112;-86
2022/09/19 11:15:16;;;;;;;11.48;2.53;;;17.20;99.90;;;;;;6349233;22;20038;-85
2022/09/19 11:17:47;;;;;;;12.75;2.10;;;;;;;;;;6257912;22;20039;-85
2022/09/19 11:20:32;;;;;;;16.13;3.08;;;;;;;;;;6311299;22;20019;-86
2022/09/19 11:26:46;;;;;;;16.33;2.72;;;;;;;;;;6149413;23;20450;-86
2022/09/19 11:33:00;;;;;;;14.70;3.30;;;;;;;;;;6151564;23;20020;-87
2022/09/19 12:02:53;;;;;;;20.25;3.17;;;;;;;;;;6307271;22;20029;-83
2022/09/19 12:09:13;;;;;;;14.85;2.58;;;;;;;;;;6306771;22;20037;-86
2022/09/19 12:28:07;;;;;;;13.82;2.40;;;;;;;;;;6306062;22;20021;-87
2022/09/19 12:37:04;;;;;;;17.42;2.75;;;;;;;;;;6274145;22;20478;-87
2022/09/19 12:46:50;;;;;;;12.57;2.13;;;;;;;;;;6303391;22;20015;-84
2022/09/19 12:49:16;;;;;;;13.68;2.78;;;;;;;;;;6273992;22;20085;-89
2022/09/19 12:52:04;;;;;;;8.40;2.03;;;;;;;;;;6275264;22;20117;-85
2022/09/19 12:58:30;;;;;;;8.85;2.22;;;;;;;;;;6316437;22;20022;-87
2022/09/19 13:07:49;;;;;;;16.38;2.45;;;;;;;;;;6307510;22;20014;-87
2022/09/19 13:10:18;;;;;;;15.00;2.50;;;;;;;;;;6248463;22;20495;-88
2022/09/19 13:12:47;;;;;;;12.93;2.28;;;;;;;;;;6306333;22;20019;-86
2022/09/19 13:15:29;;;;;;;15.32;2.38;;;;;;;;;;6302992;22;20434;-85
2022/09/19 13:24:06;;;;;;;13.18;2.40;;;;;;;;;;6304368;22;20023;-87
2022/09/19 13:26:36;;;;;;;16.00;2.22;;;;;;;;;;6304278;22;20110;-85
2022/09/19 13:29:28;;;;;;;18.20;2.70;;;;;;;;;;6274117;22;20646;-83
2022/09/19 13:31:59;;;;;;;16.52;2.67;;;;;;;;;;6272891;22;20038;-83
2022/09/19 13:34:34;;;;;;;15.75;2.58;;;;;;;;;;6248463;22;20094;-85
2022/09/19 13:41:02;;;;;;;13.40;2.85;;;;;;;;;;6301726;22;20394;-88
2022/09/19 13:50:14;;;;;;;9.45;1.67;;;15.30;99.90;;;;;;6331008;22;20073;-83
2022/09/19 13:52:42;;;;;;;11.18;2.17;;;;;;;;;;6303409;22;20478;-85
2022/09/19 13:55:41;;;;;;;14.00;3.45;;;;;;;;;;6334266;22;20018;-82
2022/09/19 13:58:28;;;;;;;16.73;2.70;;;;;;;;;;6332546;22;20019;-86
2022/09/19 14:01:14;;;;;;;12.43;2.58;;;;;;;;;;6334349;22;20022;-86
2022/09/19 14:03:48;;;;;;;17.08;3.72;;;;;;;;;;6280512;22;20026;-83
2022/09/19 14:06:22;;;;;;;16.98;2.63;;;;;;;;;;6336229;22;20141;-87
2022/09/19 14:09:19;;;;;;;21.17;3.97;;;;;;;;;;6326646;22;20026;-83
2022/09/19 14:11:45;;;;;;;16.02;3.20;;;;;;;;;;6325541;22;20019;-83
2022/09/19 14:14:40;;;;;;;15.70;2.95;;;;;;;;;;6329834;22;20089;-86
2022/09/19 14:17:32;;;;;;;16.20;2.63;;;;;;;;;;6359381;22;20022;-85
2022/09/19 14:20:08;;;;;;;17.85;2.85;;;;;;;;;;6359583;22;20023;-83
2022/09/19 14:23:01;;;;;;;19.67;2.95;;;;;;;;;;6330301;22;20011;-84
2022/09/19 14:29:34;;;;;;;12.40;2.50;;;;;;;;;;6217824;22;20013;-84
2022/09/19 14:32:20;;;;;;;10.60;2.22;;;;;;;;;;6357493;22;20060;-84
2022/09/19 14:34:49;;;;;;;20.35;3.10;;;;;;;;;;6331208;22;20074;-84
2022/09/19 14:38:04;;;;;;;12.75;2.40;;;;;;;;;;6331693;22;20018;-83
2022/09/19 14:40:58;;;;;;;15.23;2.95;;;;;;;;;;6332617;22;20019;-83
2022/09/19 14:43:47;;;;;;;17.40;2.45;;;;;;;;;;6305049;22;20019;-84
2022/09/19 14:47:00;;;;;;;18.90;2.63;;;16.30;99.90;;;;;;6360666;22;20070;-85
2022/09/19 14:49:49;;;;;;;9.60;2.50;;;;;;;;;;6359714;22;20074;-83
2022/09/19 14:52:36;;;;;;;11.75;1.75;;;;;;;;;;6361119;22;20026;-84
2022/09/19 14:55:13;;;;;;;13.43;1.98;;;;;;;;;;6349349;22;20022;-85
2022/09/19 14:57:50;;;;;;;12.57;1.88;;;;;;;;;;6325518;22;20033;-84
2022/09/19 15:00:31;;;;;;;12.43;1.98;;;;;;;;;;6323099;22;20018;-87
2022/09/19 15:03:11;;;;;;;15.32;2.58;;;;;;;;;;6301412;22;20014;-85
2022/09/19 15:05:42;;;;;;;11.18;1.77;;;;;;;;;;6355632;22;20057;-86
2022/09/19 15:08:17;;;;;;;19.63;2.33;;;;;;;;;;6356261;22;20076;-85
2022/09/19 15:11:29;;;;;;;13.95;1.75;;;;;;;;;;6319496;22;20127;-83
2022/09/19 15:14:05;;;;;;;10.57;1.80;;;;;;;;;;6181987;23;20108;-86
2022/09/19 15:16:34;;;;;;;11.73;2.58;;;;;;;;;;6230557;23;20013;-85
2022/09/19 15:19:01;;;;;;;14.02;2.88;;;;;;;;;;6205165;23;20020;-82
2022/09/19 15:21:28;;;;;;;15.70;2.50;;;;;;;;;;6226140;23;20080;-81
2022/09/19 15:24:10;;;;;;;15.23;2.80;;;;;;;;;;6208460;23;20330;-82
2022/09/19 15:27:02;;;;;;;16.30;2.17;;;;;;;;;;6177954;23;20643;-82
2022/09/19 15:29:37;;;;;;;16.75;1.98;;;;;;;;;;6153524;23;20099;-82
2022/09/19 15:32:39;;;;;;;14.48;2.35;;;;;;;;;;6183423;23;20469;-82
2022/09/19 15:35:07;;;;;;;13.73;2.55;;;;;;;;;;6201531;23;20473;-81
2022/09/19 15:37:36;;;;;;;12.80;3.63;;;;;;;;;;6205107;23;20412;-82
2022/09/19 15:40:05;;;;;;;15.65;1.90;;;;;;;;;;6202465;23;20023;-84
2022/09/19 15:42:36;;;;;;;11.07;2.70;;;;;;;;;;6229530;23;20020;-82
2022/09/19 15:45:11;;;;;;;15.18;2.55;;;;;;;;;;6292007;22;20019;-81
2022/09/19 15:47:37;;;;;;;15.07;2.30;;;;;;;;;;6302009;22;20018;-83
2022/09/19 15:50:20;;;;;;;11.70;2.25;;;;;;;;;;6276364;22;20081;-82
2022/09/19 15:52:47;;;;;;;13.13;1.92;;;;;;;;;;6329641;22;20030;-83
2022/09/19 15:55:33;;;;;;;11.20;1.80;;;;;;;;;;6302745;22;20026;-82
2022/09/19 15:58:00;;;;;;;14.15;1.92;;;;;;;;;;6301406;22;20023;-83
2022/09/19 16:00:27;;;;;;;14.30;2.45;;;;;;;;;;6331273;22;20030;-83
2022/09/19 16:02:58;;;;;;;7.55;1.52;;;;;;;;;;6329055;22;20527;-82
2022/09/19 16:05:26;;;;;;;11.65;2.00;;;;;;;;;;6303949;22;20128;-82
2022/09/19 16:10:41;;;;;;;14.05;1.83;;;;;;;;;;6330080;22;20027;-84
2022/09/19 16:13:26;;;;;;;13.80;2.38;;;;;;;;;;6304802;22;20846;-83
2022/09/19 16:16:16;;;;;;;11.20;2.35;;;;;;;;;;6328909;22;20050;-86
2022/09/19 16:18:48;;;;;;;10.80;2.08;;;;;;;;;;6288255;22;20019;-88
2022/09/19 16:27:52;;;;;;;12.77;2.20;;;;;;;;;;6269157;22;20031;-85
2022/09/19 16:30:18;;;;;;;11.02;1.55;;;;;;;;;;6291409;22;20020;-90
2022/09/19 16:33:00;;;;;;;10.88;1.90;;;;;;;;;;6259346;22;19999;-86
2022/09/19 16:35:26;;;;;;;15.85;2.88;;;;;;;;;;6258267;22;20054;-84
2022/09/19 16:38:21;;;;;;;14.02;1.85;;;;;;;;;;6247424;22;20012;-84
2022/09/19 16:44:13;;;;;;;6.75;1.60;;;;;;;;;;6270264;22;20039;-84
2022/09/19 16:50:20;;;;;;;7.32;2.03;;;;;;;;;;6176069;23;20477;-84
2022/09/19 16:55:46;;;;;;;11.52;1.70;;;;;;;;;;6243364;22;20068;-84
2022/09/19 16:58:13;;;;;;;9.55;1.90;;;;;;;;;;6244294;22;20016;-83
2022/09/19 17:00:48;;;;;;;11.55;2.42;;;;;;;;;;6241894;22;20023;-88
2022/09/19 17:03:22;;;;;;;12.20;2.35;;;;;;;;;;6271041;22;20177;-86
2022/09/19 17:05:52;;;;;;;10.23;2.05;;;;;;;;;;6267976;22;20444;-84
2022/09/19 17:08:44;;;;;;;11.52;2.75;;;;;;;;;;6243443;22;20456;-83
2022/09/19 17:11:11;;;;;;;12.75;1.92;;;;;;;;;;6270917;22;20016;-84
2022/09/19 17:13:38;;;;;;;21.60;2.60;;;;;;;;;;6272889;22;20074;-84
2022/09/19 17:16:09;;;;;;;10.65;2.05;;;;;;;;;;6269801;22;20018;-85
2022/09/19 17:18:35;;;;;;;11.75;2.20;;;;;;;;;;6272209;22;20367;-84
2022/09/19 17:21:02;;;;;;;14.52;2.15;;;;;;;;;;6247706;22;20054;-84
2022/09/19 17:23:35;;;;;;;15.18;3.10;;;;;;;;;;6224066;22;20084;-84
2022/09/19 17:26:01;;;;;;;18.58;3.08;;;;;;;;;;6248172;22;20146;-85
2022/09/19 17:28:28;;;;;;;18.02;2.83;;;;;;;;;;6251202;22;20091;-84
2022/09/19 17:34:06;;;;;;;12.80;2.17;;;;;;;;;;6176582;23;20113;-85
2022/09/19 17:36:39;;;;;;;16.23;2.00;;;;;;;;;;6293761;22;20075;-83
2022/09/19 17:39:17;;;;;;;16.23;2.58;;;;;;;;;;6274055;22;20031;-84
2022/09/19 17:41:51;;;;;;;11.20;1.77;;;;;;;;;;6289976;22;20028;-85
2022/09/19 17:44:29;;;;;;;13.15;1.90;;;;;;;;;;6300470;22;20094;-90
2022/09/19 17:47:13;;;;;;;8.65;1.50;;;;;;;;;;6282011;22;20011;-83
2022/09/19 17:53:44;;;;;;;7.82;1.50;;;;;;;;;;6331132;22;20014;-85
2022/09/19 17:56:53;;;;;;;11.27;1.60;;;;;;;;;;6322744;22;20019;-91
2022/09/19 17:59:49;;;;;;;13.52;1.83;;;;;;;;;;6291354;22;20047;-86
2022/09/19 18:05:10;;;;;;;6.60;1.30;;;;;;;;;;6294500;22;20783;-83
2022/09/19 18:07:36;;;;;;;11.98;1.52;;;;;;;;;;6270806;22;20479;-83
2022/09/19 18:10:37;;;;;;;10.75;1.58;;;;;;;;;;6303244;22;20351;-83
2022/09/19 18:13:07;;;;;;;17.85;2.22;;;;;;;;;;6299470;22;20329;-83
2022/09/19 18:16:03;;;;;;;9.52;1.95;;;;;;;;;;6308104;22;20018;-83
2022/09/19 18:18:33;;;;;;;8.63;1.88;;;;;;;;;;6312364;22;20027;-82
2022/09/19 18:21:15;;;;;;;8.70;1.60;;;;;;;;;;6316714;22;20098;-84
2022/09/19 18:23:57;;;;;;;14.98;2.03;;;;;;;;;;6293296;22;20051;-83
2022/09/19 18:26:26;;;;;;;10.50;2.30;;;;;;;;;;6269998;22;20036;-84
2022/09/19 18:28:54;;;;;;;12.18;1.40;;;;;;;;;;6289814;22;20201;-81
2022/09/19 18:31:20;;;;;;;9.45;2.10;;;;;;;;;;6295849;22;20478;-81
2022/09/19 18:33:46;;;;;;;13.32;2.03;;;;;;;;;;6261628;22;20102;-84
2022/09/19 18:39:05;;;;;;;6.95;1.63;;;;;;;;;;6291027;22;20039;-83
2022/09/19 18:41:32;;;;;;;12.98;2.13;;;;;;;;;;6258955;22;20462;-83
2022/09/19 18:44:04;;;;;;;7.13;1.38;;;;;;;;;;6300233;22;20074;-83
2022/09/19 18:46:30;;;;;;;15.10;1.63;;;;;;;;;;6284333;22;20609;-84
2022/09/19 18:48:57;;;;;;;10.50;1.73;;;;;;;;;;6297704;22;20019;-80
2022/09/19 18:51:24;;;;;;;11.30;1.50;;;;;;;;;;6297831;22;20023;-81
2022/09/19 18:53:51;;;;;;;10.98;2.13;;;;;;;;;;6298040;22;20015;-81
2022/09/19 18:56:18;;;;;;;13.70;2.47;;;;;;;;;;6298785;22;20022;-82
2022/09/19 18:58:49;;;;;;;9.82;1.95;;;;;;;;;;6221311;22;20023;-81
2022/09/19 19:01:17;;;;;;;15.27;2.05;;;;;;;;;;6299885;22;20102;-83
2022/09/19 19:03:48;;;;;;;9.10;1.55;;;;;;;;;;6294674;22;20023;-82
2022/09/19 19:06:15;;;;;;;10.27;1.60;;;;;;;;;;6296690;22;20011;-85
2022/09/19 19:08:42;;;;;;;16.63;1.80;;;;;;;;;;6268097;22;20026;-86
2022/09/19 19:11:12;;;;;;;10.93;2.17;;;;;;;;;;6241517;22;20199;-83
2022/09/19 19:13:39;;;;;;;10.65;2.10;;;;;;;;;;6298864;22;20011;-83
2022/09/19 19:16:13;;;;;;;18.58;2.28;;;;;;;;;;6298282;22;20043;-85
2022/09/19 19:18:40;;;;;;;13.85;1.83;;;;;;;;;;6297476;22;20026;-83
2022/09/19 19:21:07;;;;;;;11.95;2.50;;;;;;;;;;6267896;22;20170;-82
2022/09/19 19:23:34;;;;;;;19.20;2.22;;;;;;;;;;6240960;22;20031;-85
2022/09/19 19:26:01;;;;;;;14.95;2.90;;;;;;;;;;6245222;22;20850;-85
2022/09/19 19:28:29;;;;;;;19.00;2.63;;;;;;;;;;6293466;22;20553;-82
2022/09/19 19:30:56;;;;;;;17.02;2.58;;;;;;;;;;6269433;22;20053;-82
2022/09/19 19:33:22;;;;;;;16.63;3.10;;;;;;;;;;6293982;22;20022;-84
2022/09/19 19:36:02;;;;;;;21.77;3.22;;;;;;;;;;6269615;22;20054;-85
2022/09/19 19:38:33;;;;;;;20.40;2.63;;;;;;;;;;6242369;22;20026;-84
2022/09/19 19:41:13;;;;;;;13.70;2.50;;;;;;;;;;6295524;22;20019;-82
2022/09/19 19:43:39;;;;;;;16.70;2.70;;;;;;;;;;6270218;22;20041;-83
2022/09/19 19:46:05;;;;;;;18.17;2.90;;;;;;;;;;6295176;22;20019;-82
2022/09/19 19:48:32;;;;;;;12.48;2.40;;;;;;;;;;6270452;22;20022;-84
2022/09/19 19:50:59;;;;;;;9.05;1.30;;;;;;;;;;6269577;22;20474;-83
2022/09/19 19:53:29;;;;;;;16.15;2.10;;;;;;;;;;6298030;22;20073;-84
2022/09/19 19:56:12;;;;;;;21.48;2.88;;;;;;;;;;6303804;22;20134;-84
2022/09/19 19:59:04;;;;;;;14.88;1.92;;;;;;;;;;6316464;22;20023;-83
2022/09/19 20:04:43;;;;;;;11.10;1.52;;;;;;;;;;6322027;22;20019;-84
2022/09/19 20:07:21;;;;;;;7.65;1.10;;;;;;;;;;6331761;22;20010;-83
2022/09/19 20:12:58;;;;;;;5.85;1.15;;;;;;;;;;6347616;22;20033;-85
2022/09/19 20:15:25;;;;;;;23.60;2.75;;;;;;;;;;6338101;22;20011;-83
2022/09/19 20:18:04;;;;;;;13.30;2.10;;;;;;;;;;6339886;22;20050;-82
2022/09/19 20:20:49;;;;;;;14.10;2.20;;;;;;;;;;6335991;22;20023;-83
2022/09/19 20:23:15;;;;;;;13.55;2.05;;;;;;;;;;6342072;22;20019;-80
2022/09/19 20:28:28;;;;;;;12.75;1.85;;;;;;;;;;6303261;22;20022;-83
2022/09/19 20:31:09;;;;;;;8.07;1.30;;;;;;;;;;6251925;22;20027;-84
2022/09/19 20:33:49;;;;;;;14.75;2.30;;;;;;;;;;6254839;22;20023;-85
2022/09/19 20:36:15;;;;;;;12.63;2.28;;;;;;;;;;6307966;22;20022;-84
2022/09/19 20:38:42;;;;;;;12.73;1.95;;;;;;;;;;6302100;22;20015;-85
2022/09/19 20:41:08;;;;;;;19.85;2.95;;;;;;;;;;6248944;22;20138;-83
2022/09/19 20:43:43;;;;;;;21.10;2.50;;;;;;;;;;6303780;22;20041;-84
2022/09/19 20:46:33;;;;;;;20.67;2.33;;;;;;;;;;6274948;22;20023;-85
2022/09/19 20:49:00;;;;;;;20.90;3.00;;;;;;;;;;6275813;22;20053;-83
2022/09/19 20:51:27;;;;;;;23.75;2.55;;;;;;;;;;6300538;22;20049;-82
2022/09/19 20:54:15;;;;;;;20.80;3.60;;;;;;;;;;6247607;22;20463;-82
2022/09/19 20:56:44;;;;;;;22.38;3.50;;;;;;;;;;6275084;22;20019;-83
2022/09/19 20:59:22;;;;;;;14.13;2.33;;;;;;;;;;6276069;22;20360;-82
2022/09/19 21:01:49;;;;;;;12.20;2.30;;;;;;;;;;6300047;22;20108;-82
2022/09/19 21:04:15;;;;;;;17.30;2.05;;;;;;;;;;6301967;22;20102;-82
2022/09/19 21:06:42;;;;;;;17.80;2.42;;;;;;;;;;6298850;22;20635;-86
2022/09/19 21:09:09;;;;;;;20.88;2.83;;;;;;;;;;6273525;22;20024;-85
2022/09/19 21:11:35;;;;;;;16.33;2.75;;;;;;;;;;6302147;22;20080;-84
2022/09/19 21:14:01;;;;;;;16.90;2.40;;;;;;;;;;6277846;22;20027;-82
2022/09/19 21:16:38;;;;;;;17.10;2.15;;;;;;;;;;6302437;22;20019;-83
2022/09/19 21:19:04;;;;;;;16.75;2.47;;;;;;;;;;6300026;22;20026;-84
2022/09/19 21:21:40;;;;;;;15.10;2.55;;;;;;;;;;6274158;22;20046;-83